sensor_id;sensor_type;location;lat;lon;timestamp;P1;durP1;ratioP1;P2;durP2;ratioP2
69769;SDS011;57282;52.514;13.458;2022-08-05T00:02:11;8.10;;;5.60;;
69769;SDS011;57282;52.514;13.458;2022-08-05T00:04:38;8.00;;;4.57;;
69769;SDS011;57282;52.514;13.458;2022-08-05T00:07:05;5.75;;;4.28;;
69769;SDS011;57282;52.514;13.458;2022-08-05T00:09:31;6.00;;;4.78;;
69769;SDS011;57282;52.514;13.458;2022-08-05T00:11:59;9.40;;;5.00;;
69769;SDS011;57282;52.514;13.458;2022-08-05T00:14:26;5.45;;;4.55;;
69769;SDS011;57282;52.514;13.458;2022-08-05T00:16:52;6.80;;;4.90;;
69769;SDS011;57282;52.514;13.458;2022-08-05T00:19:19;7.75;;;4.95;;
69769;SDS011;57282;52.514;13.458;2022-08-05T00:21:46;5.30;;;4.80;;
69769;SDS011;57282;52.514;13.458;2022-08-05T00:24:13;6.70;;;4.57;;
69769;SDS011;57282;52.514;13.458;2022-08-05T00:26:39;9.00;;;5.68;;
69769;SDS011;57282;52.514;13.458;2022-08-05T00:29:08;8.30;;;5.30;;
69769;SDS011;57282;52.514;13.458;2022-08-05T00:31:34;7.20;;;5.05;;
69769;SDS011;57282;52.514;13.458;2022-08-05T00:34:01;7.40;;;5.35;;
69769;SDS011;57282;52.514;13.458;2022-08-05T00:36:28;8.23;;;4.53;;
69769;SDS011;57282;52.514;13.458;2022-08-05T00:38:54;7.85;;;4.63;;
69769;SDS011;57282;52.514;13.458;2022-08-05T00:41:28;5.50;;;3.93;;
69769;SDS011;57282;52.514;13.458;2022-08-05T00:43:56;6.05;;;4.20;;
69769;SDS011;57282;52.514;13.458;2022-08-05T00:46:25;6.50;;;3.67;;
69769;SDS011;57282;52.514;13.458;2022-08-05T00:48:52;7.75;;;4.43;;
69769;SDS011;57282;52.514;13.458;2022-08-05T00:51:19;7.78;;;4.70;;
69769;SDS011;57282;52.514;13.458;2022-08-05T00:53:47;6.10;;;4.80;;
69769;SDS011;57282;52.514;13.458;2022-08-05T00:56:15;7.40;;;4.25;;
69769;SDS011;57282;52.514;13.458;2022-08-05T00:58:43;6.50;;;4.53;;
69769;SDS011;57282;52.514;13.458;2022-08-05T01:01:10;5.18;;;4.63;;
69769;SDS011;57282;52.514;13.458;2022-08-05T01:03:40;5.05;;;4.47;;
69769;SDS011;57282;52.514;13.458;2022-08-05T01:06:08;7.10;;;4.40;;
69769;SDS011;57282;52.514;13.458;2022-08-05T01:08:36;6.22;;;5.13;;
69769;SDS011;57282;52.514;13.458;2022-08-05T01:11:05;6.50;;;5.72;;
69769;SDS011;57282;52.514;13.458;2022-08-05T01:13:40;6.78;;;4.32;;
69769;SDS011;57282;52.514;13.458;2022-08-05T01:16:20;7.40;;;5.03;;
69769;SDS011;57282;52.514;13.458;2022-08-05T01:18:57;7.03;;;4.53;;
69769;SDS011;57282;52.514;13.458;2022-08-05T01:21:37;7.38;;;4.82;;
69769;SDS011;57282;52.514;13.458;2022-08-05T01:24:34;7.53;;;5.22;;
69769;SDS011;57282;52.514;13.458;2022-08-05T01:27:43;6.65;;;5.10;;
69769;SDS011;57282;52.514;13.458;2022-08-05T01:30:35;6.13;;;4.90;;
69769;SDS011;57282;52.514;13.458;2022-08-05T01:33:08;8.77;;;4.50;;
69769;SDS011;57282;52.514;13.458;2022-08-05T01:35:38;8.15;;;4.90;;
69769;SDS011;57282;52.514;13.458;2022-08-05T01:38:07;7.90;;;5.10;;
69769;SDS011;57282;52.514;13.458;2022-08-05T01:40:37;6.78;;;5.00;;
69769;SDS011;57282;52.514;13.458;2022-08-05T01:43:06;8.23;;;5.78;;
69769;SDS011;57282;52.514;13.458;2022-08-05T01:45:36;6.77;;;4.90;;
69769;SDS011;57282;52.514;13.458;2022-08-05T01:48:04;5.80;;;5.20;;
69769;SDS011;57282;52.514;13.458;2022-08-05T01:50:35;7.15;;;5.10;;
69769;SDS011;57282;52.514;13.458;2022-08-05T01:53:06;6.53;;;5.35;;
69769;SDS011;57282;52.514;13.458;2022-08-05T01:55:36;8.25;;;5.35;;
69769;SDS011;57282;52.514;13.458;2022-08-05T01:58:09;7.27;;;4.57;;
69769;SDS011;57282;52.514;13.458;2022-08-05T02:00:41;6.90;;;4.88;;
69769;SDS011;57282;52.514;13.458;2022-08-05T02:03:15;6.80;;;5.18;;
69769;SDS011;57282;52.514;13.458;2022-08-05T02:05:46;5.53;;;4.82;;
69769;SDS011;57282;52.514;13.458;2022-08-05T02:08:17;6.75;;;4.75;;
69769;SDS011;57282;52.514;13.458;2022-08-05T02:10:46;5.07;;;4.33;;
69769;SDS011;57282;52.514;13.458;2022-08-05T02:13:23;5.75;;;4.55;;
69769;SDS011;57282;52.514;13.458;2022-08-05T02:16:00;7.78;;;5.00;;
69769;SDS011;57282;52.514;13.458;2022-08-05T02:18:34;10.82;;;5.05;;
69769;SDS011;57282;52.514;13.458;2022-08-05T02:21:08;6.40;;;4.70;;
69769;SDS011;57282;52.514;13.458;2022-08-05T02:23:40;8.33;;;5.33;;
69769;SDS011;57282;52.514;13.458;2022-08-05T02:26:10;10.80;;;5.25;;
69769;SDS011;57282;52.514;13.458;2022-08-05T02:28:48;9.15;;;4.85;;
69769;SDS011;57282;52.514;13.458;2022-08-05T02:31:18;5.40;;;4.32;;
69769;SDS011;57282;52.514;13.458;2022-08-05T02:33:53;5.35;;;4.47;;
69769;SDS011;57282;52.514;13.458;2022-08-05T02:36:28;7.10;;;4.93;;
69769;SDS011;57282;52.514;13.458;2022-08-05T02:39:00;7.07;;;4.40;;
69769;SDS011;57282;52.514;13.458;2022-08-05T02:41:30;5.90;;;4.85;;
69769;SDS011;57282;52.514;13.458;2022-08-05T02:44:00;6.53;;;5.05;;
69769;SDS011;57282;52.514;13.458;2022-08-05T02:46:32;7.65;;;5.07;;
69769;SDS011;57282;52.514;13.458;2022-08-05T02:49:01;5.93;;;4.40;;
69769;SDS011;57282;52.514;13.458;2022-08-05T02:51:30;7.88;;;4.13;;
69769;SDS011;57282;52.514;13.458;2022-08-05T02:53:57;8.10;;;5.63;;
69769;SDS011;57282;52.514;13.458;2022-08-05T02:56:25;6.20;;;4.40;;
69769;SDS011;57282;52.514;13.458;2022-08-05T02:58:53;8.55;;;5.25;;
69769;SDS011;57282;52.514;13.458;2022-08-05T03:01:23;9.83;;;5.03;;
69769;SDS011;57282;52.514;13.458;2022-08-05T03:03:52;8.90;;;4.90;;
69769;SDS011;57282;52.514;13.458;2022-08-05T03:06:23;6.22;;;4.72;;
69769;SDS011;57282;52.514;13.458;2022-08-05T03:08:54;6.32;;;4.63;;
69769;SDS011;57282;52.514;13.458;2022-08-05T03:11:29;8.15;;;5.07;;
69769;SDS011;57282;52.514;13.458;2022-08-05T03:13:56;8.00;;;4.07;;
69769;SDS011;57282;52.514;13.458;2022-08-05T03:16:24;6.55;;;4.50;;
69769;SDS011;57282;52.514;13.458;2022-08-05T03:18:51;5.82;;;4.97;;
69769;SDS011;57282;52.514;13.458;2022-08-05T03:21:17;8.02;;;5.25;;
69769;SDS011;57282;52.514;13.458;2022-08-05T03:23:44;6.32;;;4.07;;
69769;SDS011;57282;52.514;13.458;2022-08-05T03:26:11;12.33;;;4.23;;
69769;SDS011;57282;52.514;13.458;2022-08-05T03:28:39;8.73;;;4.22;;
69769;SDS011;57282;52.514;13.458;2022-08-05T03:31:05;8.60;;;4.88;;
69769;SDS011;57282;52.514;13.458;2022-08-05T03:33:35;7.85;;;4.30;;
69769;SDS011;57282;52.514;13.458;2022-08-05T03:36:03;6.28;;;4.38;;
69769;SDS011;57282;52.514;13.458;2022-08-05T03:38:31;6.53;;;4.10;;
69769;SDS011;57282;52.514;13.458;2022-08-05T03:40:58;6.95;;;4.63;;
69769;SDS011;57282;52.514;13.458;2022-08-05T03:43:25;7.53;;;4.68;;
69769;SDS011;57282;52.514;13.458;2022-08-05T03:45:52;6.20;;;4.40;;
69769;SDS011;57282;52.514;13.458;2022-08-05T03:48:19;6.53;;;4.25;;
69769;SDS011;57282;52.514;13.458;2022-08-05T03:50:49;10.30;;;4.20;;
69769;SDS011;57282;52.514;13.458;2022-08-05T03:53:21;5.75;;;4.30;;
69769;SDS011;57282;52.514;13.458;2022-08-05T03:55:56;6.88;;;4.10;;
69769;SDS011;57282;52.514;13.458;2022-08-05T03:58:36;7.25;;;4.28;;
69769;SDS011;57282;52.514;13.458;2022-08-05T04:01:07;6.93;;;3.78;;
69769;SDS011;57282;52.514;13.458;2022-08-05T04:03:37;7.27;;;3.70;;
69769;SDS011;57282;52.514;13.458;2022-08-05T04:06:08;5.43;;;3.50;;
69769;SDS011;57282;52.514;13.458;2022-08-05T04:08:35;7.25;;;3.88;;
69769;SDS011;57282;52.514;13.458;2022-08-05T04:11:03;9.10;;;3.92;;
69769;SDS011;57282;52.514;13.458;2022-08-05T04:13:33;10.32;;;4.22;;
69769;SDS011;57282;52.514;13.458;2022-08-05T04:15:59;8.60;;;4.13;;
69769;SDS011;57282;52.514;13.458;2022-08-05T04:18:26;8.50;;;3.90;;
69769;SDS011;57282;52.514;13.458;2022-08-05T04:20:53;9.07;;;4.53;;
69769;SDS011;57282;52.514;13.458;2022-08-05T04:23:24;10.30;;;3.92;;
69769;SDS011;57282;52.514;13.458;2022-08-05T04:25:53;6.40;;;4.13;;
69769;SDS011;57282;52.514;13.458;2022-08-05T04:28:20;7.93;;;3.80;;
69769;SDS011;57282;52.514;13.458;2022-08-05T04:30:47;11.05;;;4.28;;
69769;SDS011;57282;52.514;13.458;2022-08-05T04:33:14;16.70;;;4.55;;
69769;SDS011;57282;52.514;13.458;2022-08-05T04:35:41;7.57;;;3.70;;
69769;SDS011;57282;52.514;13.458;2022-08-05T04:38:09;6.18;;;4.35;;
69769;SDS011;57282;52.514;13.458;2022-08-05T04:40:38;7.63;;;3.70;;
69769;SDS011;57282;52.514;13.458;2022-08-05T04:43:06;7.07;;;4.32;;
69769;SDS011;57282;52.514;13.458;2022-08-05T04:45:33;5.82;;;4.20;;
69769;SDS011;57282;52.514;13.458;2022-08-05T04:48:04;6.28;;;4.00;;
69769;SDS011;57282;52.514;13.458;2022-08-05T04:50:37;7.85;;;4.57;;
69769;SDS011;57282;52.514;13.458;2022-08-05T04:53:05;4.93;;;3.87;;
69769;SDS011;57282;52.514;13.458;2022-08-05T04:55:33;6.22;;;3.45;;
69769;SDS011;57282;52.514;13.458;2022-08-05T04:58:01;5.70;;;3.97;;
69769;SDS011;57282;52.514;13.458;2022-08-05T05:00:29;7.80;;;3.95;;
69769;SDS011;57282;52.514;13.458;2022-08-05T05:02:56;6.50;;;3.92;;
69769;SDS011;57282;52.514;13.458;2022-08-05T05:05:23;5.33;;;3.97;;
69769;SDS011;57282;52.514;13.458;2022-08-05T05:07:49;8.48;;;3.90;;
69769;SDS011;57282;52.514;13.458;2022-08-05T05:10:16;6.18;;;3.92;;
69769;SDS011;57282;52.514;13.458;2022-08-05T05:12:43;6.13;;;4.13;;
69769;SDS011;57282;52.514;13.458;2022-08-05T05:15:11;6.53;;;4.13;;
69769;SDS011;57282;52.514;13.458;2022-08-05T05:17:38;8.80;;;4.50;;
69769;SDS011;57282;52.514;13.458;2022-08-05T05:20:07;8.73;;;4.85;;
69769;SDS011;57282;52.514;13.458;2022-08-05T05:22:35;6.22;;;4.00;;
69769;SDS011;57282;52.514;13.458;2022-08-05T05:25:03;7.57;;;4.68;;
69769;SDS011;57282;52.514;13.458;2022-08-05T05:27:32;9.48;;;4.88;;
69769;SDS011;57282;52.514;13.458;2022-08-05T05:30:00;10.90;;;4.50;;
69769;SDS011;57282;52.514;13.458;2022-08-05T05:32:28;7.97;;;4.32;;
69769;SDS011;57282;52.514;13.458;2022-08-05T05:34:55;7.68;;;4.03;;
69769;SDS011;57282;52.514;13.458;2022-08-05T05:37:21;7.18;;;3.78;;
69769;SDS011;57282;52.514;13.458;2022-08-05T05:39:48;6.60;;;4.45;;
69769;SDS011;57282;52.514;13.458;2022-08-05T05:42:15;7.53;;;3.83;;
69769;SDS011;57282;52.514;13.458;2022-08-05T05:44:42;7.15;;;4.53;;
69769;SDS011;57282;52.514;13.458;2022-08-05T05:47:08;6.97;;;4.20;;
69769;SDS011;57282;52.514;13.458;2022-08-05T05:49:36;6.05;;;3.97;;
69769;SDS011;57282;52.514;13.458;2022-08-05T05:52:04;5.75;;;4.40;;
69769;SDS011;57282;52.514;13.458;2022-08-05T05:54:31;7.70;;;4.27;;
69769;SDS011;57282;52.514;13.458;2022-08-05T05:56:58;10.15;;;4.40;;
69769;SDS011;57282;52.514;13.458;2022-08-05T05:59:25;6.65;;;4.78;;
69769;SDS011;57282;52.514;13.458;2022-08-05T06:01:51;7.38;;;4.53;;
69769;SDS011;57282;52.514;13.458;2022-08-05T06:04:18;6.10;;;4.47;;
69769;SDS011;57282;52.514;13.458;2022-08-05T06:06:46;6.57;;;3.93;;
69769;SDS011;57282;52.514;13.458;2022-08-05T06:09:13;13.00;;;4.35;;
69769;SDS011;57282;52.514;13.458;2022-08-05T06:11:39;6.88;;;4.30;;
69769;SDS011;57282;52.514;13.458;2022-08-05T06:14:06;9.65;;;4.15;;
69769;SDS011;57282;52.514;13.458;2022-08-05T06:16:32;10.50;;;4.38;;
69769;SDS011;57282;52.514;13.458;2022-08-05T06:18:59;8.40;;;3.37;;
69769;SDS011;57282;52.514;13.458;2022-08-05T06:21:26;10.50;;;3.83;;
69769;SDS011;57282;52.514;13.458;2022-08-05T06:23:54;8.73;;;4.40;;
69769;SDS011;57282;52.514;13.458;2022-08-05T06:26:21;10.38;;;3.58;;
69769;SDS011;57282;52.514;13.458;2022-08-05T06:28:47;9.88;;;3.95;;
69769;SDS011;57282;52.514;13.458;2022-08-05T06:31:14;10.00;;;3.90;;
69769;SDS011;57282;52.514;13.458;2022-08-05T06:33:40;7.53;;;3.63;;
69769;SDS011;57282;52.514;13.458;2022-08-05T06:36:07;9.30;;;3.90;;
69769;SDS011;57282;52.514;13.458;2022-08-05T06:38:34;7.80;;;2.40;;
69769;SDS011;57282;52.514;13.458;2022-08-05T06:41:02;5.80;;;3.20;;
69769;SDS011;57282;52.514;13.458;2022-08-05T06:43:29;5.67;;;2.73;;
69769;SDS011;57282;52.514;13.458;2022-08-05T06:45:56;5.60;;;2.75;;
69769;SDS011;57282;52.514;13.458;2022-08-05T06:48:22;5.63;;;3.75;;
69769;SDS011;57282;52.514;13.458;2022-08-05T06:50:49;4.85;;;2.60;;
69769;SDS011;57282;52.514;13.458;2022-08-05T06:53:16;5.93;;;2.90;;
69769;SDS011;57282;52.514;13.458;2022-08-05T06:55:42;6.43;;;3.07;;
69769;SDS011;57282;52.514;13.458;2022-08-05T06:58:10;5.60;;;2.92;;
69769;SDS011;57282;52.514;13.458;2022-08-05T07:00:37;6.72;;;2.90;;
69769;SDS011;57282;52.514;13.458;2022-08-05T07:03:04;5.18;;;2.63;;
69769;SDS011;57282;52.514;13.458;2022-08-05T07:05:30;6.38;;;2.80;;
69769;SDS011;57282;52.514;13.458;2022-08-05T07:07:57;3.83;;;1.93;;
69769;SDS011;57282;52.514;13.458;2022-08-05T07:10:24;5.63;;;2.58;;
69769;SDS011;57282;52.514;13.458;2022-08-05T07:12:50;4.80;;;2.08;;
69769;SDS011;57282;52.514;13.458;2022-08-05T07:15:37;3.42;;;2.25;;
69769;SDS011;57282;52.514;13.458;2022-08-05T07:18:21;5.30;;;2.45;;
69769;SDS011;57282;52.514;13.458;2022-08-05T07:20:48;3.90;;;2.00;;
69769;SDS011;57282;52.514;13.458;2022-08-05T07:23:15;3.75;;;2.10;;
69769;SDS011;57282;52.514;13.458;2022-08-05T07:25:41;5.28;;;2.40;;
69769;SDS011;57282;52.514;13.458;2022-08-05T07:28:08;4.07;;;2.08;;
69769;SDS011;57282;52.514;13.458;2022-08-05T07:30:36;5.60;;;3.00;;
69769;SDS011;57282;52.514;13.458;2022-08-05T07:33:04;6.23;;;2.17;;
69769;SDS011;57282;52.514;13.458;2022-08-05T07:35:33;6.07;;;2.28;;
69769;SDS011;57282;52.514;13.458;2022-08-05T07:38:00;4.53;;;2.20;;
69769;SDS011;57282;52.514;13.458;2022-08-05T07:40:26;8.82;;;2.28;;
69769;SDS011;57282;52.514;13.458;2022-08-05T07:42:53;8.20;;;2.60;;
69769;SDS011;57282;52.514;13.458;2022-08-05T07:45:20;6.47;;;2.00;;
69769;SDS011;57282;52.514;13.458;2022-08-05T07:47:48;3.03;;;2.05;;
69769;SDS011;57282;52.514;13.458;2022-08-05T07:50:15;6.97;;;2.53;;
69769;SDS011;57282;52.514;13.458;2022-08-05T07:52:41;4.47;;;2.20;;
69769;SDS011;57282;52.514;13.458;2022-08-05T07:55:09;4.38;;;2.22;;
69769;SDS011;57282;52.514;13.458;2022-08-05T07:57:36;5.33;;;2.10;;
69769;SDS011;57282;52.514;13.458;2022-08-05T08:00:05;5.15;;;2.15;;
69769;SDS011;57282;52.514;13.458;2022-08-05T08:02:33;9.55;;;2.20;;
69769;SDS011;57282;52.514;13.458;2022-08-05T08:05:01;3.50;;;2.00;;
69769;SDS011;57282;52.514;13.458;2022-08-05T08:07:28;3.88;;;2.30;;
69769;SDS011;57282;52.514;13.458;2022-08-05T08:09:55;3.20;;;1.80;;
69769;SDS011;57282;52.514;13.458;2022-08-05T08:12:21;4.72;;;2.50;;
69769;SDS011;57282;52.514;13.458;2022-08-05T08:14:48;4.95;;;2.22;;
69769;SDS011;57282;52.514;13.458;2022-08-05T08:17:15;3.42;;;2.45;;
69769;SDS011;57282;52.514;13.458;2022-08-05T08:19:43;3.83;;;2.25;;
69769;SDS011;57282;52.514;13.458;2022-08-05T08:22:11;5.80;;;1.90;;
69769;SDS011;57282;52.514;13.458;2022-08-05T08:24:38;3.80;;;2.20;;
69769;SDS011;57282;52.514;13.458;2022-08-05T08:27:05;3.85;;;2.45;;
69769;SDS011;57282;52.514;13.458;2022-08-05T08:29:32;5.13;;;1.92;;
69769;SDS011;57282;52.514;13.458;2022-08-05T08:31:58;7.13;;;2.40;;
69769;SDS011;57282;52.514;13.458;2022-08-05T08:34:25;4.63;;;1.63;;
69769;SDS011;57282;52.514;13.458;2022-08-05T08:36:52;4.50;;;2.03;;
69769;SDS011;57282;52.514;13.458;2022-08-05T08:39:21;3.45;;;1.90;;
69769;SDS011;57282;52.514;13.458;2022-08-05T08:41:49;4.78;;;1.75;;
69769;SDS011;57282;52.514;13.458;2022-08-05T08:44:18;3.78;;;1.95;;
69769;SDS011;57282;52.514;13.458;2022-08-05T08:46:48;5.93;;;1.67;;
69769;SDS011;57282;52.514;13.458;2022-08-05T08:49:17;3.28;;;2.35;;
69769;SDS011;57282;52.514;13.458;2022-08-05T08:51:45;4.03;;;2.20;;
69769;SDS011;57282;52.514;13.458;2022-08-05T08:54:14;5.90;;;1.73;;
69769;SDS011;57282;52.514;13.458;2022-08-05T08:56:43;3.55;;;1.58;;
69769;SDS011;57282;52.514;13.458;2022-08-05T08:59:10;2.70;;;1.70;;
69769;SDS011;57282;52.514;13.458;2022-08-05T09:01:37;4.90;;;2.20;;
69769;SDS011;57282;52.514;13.458;2022-08-05T09:04:06;5.22;;;1.75;;
69769;SDS011;57282;52.514;13.458;2022-08-05T09:06:32;3.35;;;1.50;;
69769;SDS011;57282;52.514;13.458;2022-08-05T09:09:00;3.85;;;1.67;;
69769;SDS011;57282;52.514;13.458;2022-08-05T09:11:27;6.40;;;1.97;;
69769;SDS011;57282;52.514;13.458;2022-08-05T09:13:55;5.03;;;2.25;;
69769;SDS011;57282;52.514;13.458;2022-08-05T09:16:23;5.63;;;2.42;;
69769;SDS011;57282;52.514;13.458;2022-08-05T09:18:50;5.97;;;1.92;;
69769;SDS011;57282;52.514;13.458;2022-08-05T09:21:17;5.15;;;2.20;;
69769;SDS011;57282;52.514;13.458;2022-08-05T09:23:46;5.60;;;1.80;;
69769;SDS011;57282;52.514;13.458;2022-08-05T09:26:27;4.88;;;2.17;;
69769;SDS011;57282;52.514;13.458;2022-08-05T09:28:57;8.05;;;2.40;;
69769;SDS011;57282;52.514;13.458;2022-08-05T09:31:28;5.85;;;2.20;;
69769;SDS011;57282;52.514;13.458;2022-08-05T09:33:56;4.43;;;1.67;;
69769;SDS011;57282;52.514;13.458;2022-08-05T09:39:11;5.50;;;2.40;;
69769;SDS011;57282;52.514;13.458;2022-08-05T09:41:54;4.70;;;1.92;;
69769;SDS011;57282;52.514;13.458;2022-08-05T09:44:35;4.13;;;2.00;;
69769;SDS011;57282;52.514;13.458;2022-08-05T09:47:08;6.50;;;2.40;;
69769;SDS011;57282;52.514;13.458;2022-08-05T09:49:45;3.00;;;2.27;;
69769;SDS011;57282;52.514;13.458;2022-08-05T09:52:21;5.30;;;2.08;;
69769;SDS011;57282;52.514;13.458;2022-08-05T09:54:50;5.13;;;1.92;;
69769;SDS011;57282;52.514;13.458;2022-08-05T09:57:29;4.55;;;1.48;;
69769;SDS011;57282;52.514;13.458;2022-08-05T10:00:04;4.22;;;2.08;;
69769;SDS011;57282;52.514;13.458;2022-08-05T10:02:36;3.40;;;2.33;;
69769;SDS011;57282;52.514;13.458;2022-08-05T10:05:06;3.28;;;1.80;;
69769;SDS011;57282;52.514;13.458;2022-08-05T10:07:47;4.50;;;2.22;;
69769;SDS011;57282;52.514;13.458;2022-08-05T10:10:17;4.95;;;2.00;;
69769;SDS011;57282;52.514;13.458;2022-08-05T10:12:48;3.28;;;2.13;;
69769;SDS011;57282;52.514;13.458;2022-08-05T10:15:19;5.30;;;2.40;;
69769;SDS011;57282;52.514;13.458;2022-08-05T10:18:09;5.60;;;1.95;;
69769;SDS011;57282;52.514;13.458;2022-08-05T10:20:40;4.65;;;2.17;;
69769;SDS011;57282;52.514;13.458;2022-08-05T10:23:10;4.05;;;2.30;;
69769;SDS011;57282;52.514;13.458;2022-08-05T10:25:40;8.40;;;2.70;;
69769;SDS011;57282;52.514;13.458;2022-08-05T10:28:06;4.80;;;2.20;;
69769;SDS011;57282;52.514;13.458;2022-08-05T10:30:35;6.03;;;2.40;;
69769;SDS011;57282;52.514;13.458;2022-08-05T10:33:03;7.65;;;2.60;;
69769;SDS011;57282;52.514;13.458;2022-08-05T10:35:32;12.50;;;2.20;;
69769;SDS011;57282;52.514;13.458;2022-08-05T10:38:00;7.13;;;2.63;;
69769;SDS011;57282;52.514;13.458;2022-08-05T10:40:30;4.90;;;1.80;;
69769;SDS011;57282;52.514;13.458;2022-08-05T10:43:07;4.80;;;1.90;;
69769;SDS011;57282;52.514;13.458;2022-08-05T10:45:55;7.57;;;2.30;;
69769;SDS011;57282;52.514;13.458;2022-08-05T10:48:33;4.35;;;2.28;;
69769;SDS011;57282;52.514;13.458;2022-08-05T10:51:04;9.23;;;2.85;;
69769;SDS011;57282;52.514;13.458;2022-08-05T10:53:38;6.37;;;2.90;;
69769;SDS011;57282;52.514;13.458;2022-08-05T10:56:09;4.85;;;2.28;;
69769;SDS011;57282;52.514;13.458;2022-08-05T10:58:47;7.50;;;2.92;;
69769;SDS011;57282;52.514;13.458;2022-08-05T11:01:29;7.63;;;3.53;;
69769;SDS011;57282;52.514;13.458;2022-08-05T11:04:04;4.53;;;2.58;;
69769;SDS011;57282;52.514;13.458;2022-08-05T11:09:35;7.50;;;2.80;;
69769;SDS011;57282;52.514;13.458;2022-08-05T11:15:15;7.55;;;2.75;;
69769;SDS011;57282;52.514;13.458;2022-08-05T11:17:48;7.18;;;3.17;;
69769;SDS011;57282;52.514;13.458;2022-08-05T11:23:26;3.53;;;1.90;;
69769;SDS011;57282;52.514;13.458;2022-08-05T11:25:59;5.50;;;3.00;;
69769;SDS011;57282;52.514;13.458;2022-08-05T11:28:38;3.85;;;1.92;;
69769;SDS011;57282;52.514;13.458;2022-08-05T11:31:18;4.15;;;2.65;;
69769;SDS011;57282;52.514;13.458;2022-08-05T11:33:57;3.77;;;1.90;;
69769;SDS011;57282;52.514;13.458;2022-08-05T11:36:39;4.05;;;1.83;;
69769;SDS011;57282;52.514;13.458;2022-08-05T11:39:12;5.53;;;2.17;;
69769;SDS011;57282;52.514;13.458;2022-08-05T11:41:48;6.22;;;1.90;;
69769;SDS011;57282;52.514;13.458;2022-08-05T11:44:18;4.20;;;1.50;;
69769;SDS011;57282;52.514;13.458;2022-08-05T11:46:46;3.10;;;1.47;;
69769;SDS011;57282;52.514;13.458;2022-08-05T11:49:16;3.90;;;1.67;;
69769;SDS011;57282;52.514;13.458;2022-08-05T11:51:45;3.35;;;2.00;;
69769;SDS011;57282;52.514;13.458;2022-08-05T11:54:20;3.60;;;1.77;;
69769;SDS011;57282;52.514;13.458;2022-08-05T11:56:51;4.25;;;2.13;;
69769;SDS011;57282;52.514;13.458;2022-08-05T11:59:21;4.27;;;1.80;;
69769;SDS011;57282;52.514;13.458;2022-08-05T12:01:56;5.68;;;2.30;;
69769;SDS011;57282;52.514;13.458;2022-08-05T12:04:38;4.57;;;2.28;;
69769;SDS011;57282;52.514;13.458;2022-08-05T12:07:08;3.88;;;2.05;;
69769;SDS011;57282;52.514;13.458;2022-08-05T12:09:38;6.75;;;2.70;;
69769;SDS011;57282;52.514;13.458;2022-08-05T12:12:07;5.90;;;2.70;;
69769;SDS011;57282;52.514;13.458;2022-08-05T12:14:34;3.97;;;2.58;;
69769;SDS011;57282;52.514;13.458;2022-08-05T12:17:06;4.70;;;2.40;;
69769;SDS011;57282;52.514;13.458;2022-08-05T12:19:42;3.75;;;2.40;;
69769;SDS011;57282;52.514;13.458;2022-08-05T12:22:12;5.38;;;2.53;;
69769;SDS011;57282;52.514;13.458;2022-08-05T12:24:40;3.47;;;2.03;;
69769;SDS011;57282;52.514;13.458;2022-08-05T12:27:10;7.72;;;3.17;;
69769;SDS011;57282;52.514;13.458;2022-08-05T12:29:45;7.43;;;2.67;;
69769;SDS011;57282;52.514;13.458;2022-08-05T12:32:23;5.28;;;2.20;;
69769;SDS011;57282;52.514;13.458;2022-08-05T12:34:51;5.20;;;2.75;;
69769;SDS011;57282;52.514;13.458;2022-08-05T12:37:17;6.93;;;2.10;;
69769;SDS011;57282;52.514;13.458;2022-08-05T12:39:44;5.00;;;2.20;;
69769;SDS011;57282;52.514;13.458;2022-08-05T12:42:12;4.28;;;2.58;;
69769;SDS011;57282;52.514;13.458;2022-08-05T12:44:42;5.75;;;2.55;;
69769;SDS011;57282;52.514;13.458;2022-08-05T12:47:10;7.40;;;2.60;;
69769;SDS011;57282;52.514;13.458;2022-08-05T12:49:39;5.23;;;2.77;;
69769;SDS011;57282;52.514;13.458;2022-08-05T12:52:13;6.15;;;2.60;;
69769;SDS011;57282;52.514;13.458;2022-08-05T12:54:43;5.95;;;3.03;;
69769;SDS011;57282;52.514;13.458;2022-08-05T12:57:12;5.78;;;3.08;;
69769;SDS011;57282;52.514;13.458;2022-08-05T12:59:43;5.45;;;3.22;;
69769;SDS011;57282;52.514;13.458;2022-08-05T13:02:14;5.10;;;2.83;;
69769;SDS011;57282;52.514;13.458;2022-08-05T13:04:45;5.57;;;2.78;;
69769;SDS011;57282;52.514;13.458;2022-08-05T13:07:15;6.50;;;2.88;;
69769;SDS011;57282;52.514;13.458;2022-08-05T13:09:47;4.78;;;2.63;;
69769;SDS011;57282;52.514;13.458;2022-08-05T13:12:17;4.03;;;2.55;;
69769;SDS011;57282;52.514;13.458;2022-08-05T13:14:46;5.00;;;2.67;;
69769;SDS011;57282;52.514;13.458;2022-08-05T13:17:16;7.85;;;2.70;;
69769;SDS011;57282;52.514;13.458;2022-08-05T13:20:02;10.65;;;3.70;;
69769;SDS011;57282;52.514;13.458;2022-08-05T13:22:33;4.20;;;2.80;;
69769;SDS011;57282;52.514;13.458;2022-08-05T13:25:02;5.43;;;2.78;;
69769;SDS011;57282;52.514;13.458;2022-08-05T13:27:32;4.67;;;2.30;;
69769;SDS011;57282;52.514;13.458;2022-08-05T13:30:02;4.57;;;2.10;;
69769;SDS011;57282;52.514;13.458;2022-08-05T13:32:31;3.78;;;2.72;;
69769;SDS011;57282;52.514;13.458;2022-08-05T13:34:58;4.30;;;1.92;;
69769;SDS011;57282;52.514;13.458;2022-08-05T13:37:25;2.90;;;1.98;;
69769;SDS011;57282;52.514;13.458;2022-08-05T13:39:53;3.63;;;1.83;;
69769;SDS011;57282;52.514;13.458;2022-08-05T13:42:21;2.90;;;1.95;;
69769;SDS011;57282;52.514;13.458;2022-08-05T13:44:49;3.33;;;2.17;;
69769;SDS011;57282;52.514;13.458;2022-08-05T13:47:16;3.38;;;2.00;;
69769;SDS011;57282;52.514;13.458;2022-08-05T13:49:44;4.47;;;2.47;;
69769;SDS011;57282;52.514;13.458;2022-08-05T13:52:15;4.47;;;2.20;;
69769;SDS011;57282;52.514;13.458;2022-08-05T13:54:45;4.35;;;2.35;;
69769;SDS011;57282;52.514;13.458;2022-08-05T13:57:13;2.97;;;1.98;;
69769;SDS011;57282;52.514;13.458;2022-08-05T13:59:40;3.47;;;1.85;;
69769;SDS011;57282;52.514;13.458;2022-08-05T14:02:08;3.90;;;2.70;;
69769;SDS011;57282;52.514;13.458;2022-08-05T14:04:38;5.40;;;1.93;;
69769;SDS011;57282;52.514;13.458;2022-08-05T14:07:25;3.83;;;1.90;;
69769;SDS011;57282;52.514;13.458;2022-08-05T14:09:54;5.32;;;2.25;;
69769;SDS011;57282;52.514;13.458;2022-08-05T14:12:22;6.25;;;2.33;;
69769;SDS011;57282;52.514;13.458;2022-08-05T14:14:49;5.40;;;2.38;;
69769;SDS011;57282;52.514;13.458;2022-08-05T14:17:16;4.13;;;2.30;;
69769;SDS011;57282;52.514;13.458;2022-08-05T14:19:44;5.28;;;3.42;;
69769;SDS011;57282;52.514;13.458;2022-08-05T14:22:11;4.95;;;2.63;;
69769;SDS011;57282;52.514;13.458;2022-08-05T14:24:38;3.08;;;2.05;;
69769;SDS011;57282;52.514;13.458;2022-08-05T14:27:04;7.22;;;2.80;;
69769;SDS011;57282;52.514;13.458;2022-08-05T14:29:33;6.43;;;2.40;;
69769;SDS011;57282;52.514;13.458;2022-08-05T14:32:02;3.65;;;2.40;;
69769;SDS011;57282;52.514;13.458;2022-08-05T14:34:29;4.03;;;2.65;;
69769;SDS011;57282;52.514;13.458;2022-08-05T14:36:56;5.47;;;2.42;;
69769;SDS011;57282;52.514;13.458;2022-08-05T14:39:23;3.72;;;2.35;;
69769;SDS011;57282;52.514;13.458;2022-08-05T14:41:50;3.77;;;2.70;;
69769;SDS011;57282;52.514;13.458;2022-08-05T14:44:17;4.63;;;2.90;;
69769;SDS011;57282;52.514;13.458;2022-08-05T14:46:45;3.88;;;2.88;;
69769;SDS011;57282;52.514;13.458;2022-08-05T14:49:12;6.85;;;2.70;;
69769;SDS011;57282;52.514;13.458;2022-08-05T14:51:39;4.55;;;3.10;;
69769;SDS011;57282;52.514;13.458;2022-08-05T14:54:06;6.07;;;2.70;;
69769;SDS011;57282;52.514;13.458;2022-08-05T14:56:33;4.30;;;2.67;;
69769;SDS011;57282;52.514;13.458;2022-08-05T14:59:00;4.95;;;3.13;;
69769;SDS011;57282;52.514;13.458;2022-08-05T15:01:27;5.47;;;2.72;;